Time;durP1;ratioP1;P1;durP2;ratioP2;P2;SDS_P1;SDS_P2;PMS_P1;PMS_P2;Temp;Humidity;BMP_temperature;BMP_pressure;BME280_temperature;BME280_humidity;BME280_pressure;Samples;Min_cycle;Max_cycle;Signal;HPM_P1;HPM_P2
2021/04/06 00:02:19;;;;;;;0.20;0.20;;;;;;;1.17;44.17;101072.59;4845029;29;20485;-75
2021/04/06 00:04:51;;;;;;;1.85;0.30;;;;;;;1.16;43.84;101065.53;4841104;29;20042;-74
2021/04/06 00:07:19;;;;;;;0.32;0.28;;;;;;;1.13;43.84;101065.91;4823889;29;20477;-76
2021/04/06 00:09:49;;;;;;;0.93;0.50;;;;;;;1.10;44.07;101060.91;4840632;29;20028;-76
2021/04/06 00:12:16;;;;;;;0.28;0.20;;;;;;;1.06;43.93;101059.59;4844136;29;20034;-76
2021/04/06 00:14:46;;;;;;;0.40;0.30;;;;;;;1.02;44.35;101069.06;4818988;29;20994;-75
2021/04/06 00:17:14;;;;;;;0.52;0.40;;;;;;;0.89;44.58;101058.94;4840214;29;20030;-76
2021/04/06 00:19:53;;;;;;;6.30;0.55;;;;;;;0.91;44.77;101064.19;4840705;29;20505;-77
2021/04/06 00:22:22;;;;;;;0.35;0.25;;;;;;;0.92;45.75;101068.53;4837613;29;20480;-76
2021/04/06 00:25:03;;;;;;;;;;;;;;;;;;;;;
2021/04/06 00:27:41;;;;;;;;;;;;;;;;;;;;;
2021/04/06 00:30:16;;;;;;;0.95;0.30;;;;;;;0.79;46.39;101051.16;4842885;29;20025;-76
2021/04/06 00:32:53;;;;;;;;;;;;;;;;;;;;;
2021/04/06 00:35:33;;;;;;;3.83;0.40;;;;;;;0.69;45.96;101042.53;4839053;29;20113;-75
2021/04/06 00:38:04;;;;;;;3.40;0.10;;;;;;;0.64;46.06;101039.56;4828830;29;20053;-75
2021/04/06 00:40:33;;;;;;;0.47;0.20;;;;;;;0.64;46.21;101042.25;4828056;29;20094;-74
2021/04/06 00:43:04;;;;;;;0.73;0.40;;;;;;;0.73;46.38;101059.16;4837450;29;20030;-75
2021/04/06 00:45:32;;;;;;;0.80;0.60;;;;;;;0.68;46.24;101054.31;4839253;29;20082;-75
2021/04/06 00:47:58;;;;;;;0.68;0.68;;;;;;;0.73;46.34;101060.00;4837503;29;20054;-73
2021/04/06 00:50:31;;;;;;;0.95;0.60;;;;;;;0.75;46.39;101062.50;4848969;29;20021;-74
2021/04/06 00:52:56;;;;;;;0.80;0.50;;;;;;;0.73;46.81;101059.16;4844615;29;20418;-74
2021/04/06 00:55:22;;;;;;;2.30;0.30;;;;;;;0.77;47.20;101058.59;4843035;29;20085;-74
2021/04/06 00:57:47;;;;;;;1.30;0.85;;;;;;;0.77;46.96;101060.44;4831827;29;20026;-74
2021/04/06 01:00:29;;;;;;;2.60;0.43;;;;;;;0.81;46.67;101057.19;4811712;29;20362;-74
2021/04/06 01:03:08;;;;;;;2.83;0.75;;;;;;;0.81;47.03;101056.38;4838948;29;20034;-75
2021/04/06 01:06:05;;;;;;;0.20;0.10;;;;;;;0.78;47.58;101045.97;4843542;29;20044;-74
2021/04/06 01:08:40;;;;;;;4.18;0.40;;;;;;;0.69;47.84;101037.97;4835700;29;20033;-72
2021/04/06 01:11:06;;;;;;;0.40;0.32;;;;;;;0.70;47.71;101044.19;4822885;29;20026;-74
2021/04/06 01:13:33;;;;;;;0.65;0.30;;;;;;;0.70;48.02;101041.50;4831479;29;20034;-73
2021/04/06 01:16:00;;;;;;;0.75;0.50;;;;;;;0.66;48.47;101037.53;4837397;29;20025;-74
2021/04/06 01:18:27;;;;;;;2.25;0.30;;;;;;;0.61;48.03;101021.91;4838785;29;20038;-74
2021/04/06 01:20:55;;;;;;;0.70;0.30;;;;;;;0.63;48.74;101021.75;4829732;29;20042;-74
2021/04/06 01:23:20;;;;;;;4.28;0.70;;;;;;;0.64;48.72;101029.63;4840497;29;20503;-75
2021/04/06 01:25:50;;;;;;;1.48;0.20;;;;;;;0.63;48.83;101022.56;4840153;29;20063;-73
2021/04/06 01:28:17;;;;;;;5.20;0.47;;;;;;;0.60;49.11;101016.72;4838663;29;20025;-74
2021/04/06 01:30:45;;;;;;;4.78;0.55;;;;;;;0.57;49.15;101009.00;4833501;29;20042;-73
2021/04/06 01:33:23;;;;;;;3.40;0.52;;;;;;;0.59;49.41;101023.97;4843799;29;20041;-74
2021/04/06 01:35:54;;;;;;;2.13;0.32;;;;;;;0.52;49.49;100999.63;4831696;29;20020;-74
2021/04/06 01:38:24;;;;;;;8.90;0.82;;;;;;;0.55;49.77;101019.97;4834145;29;20034;-73
2021/04/06 01:40:50;;;;;;;0.57;0.20;;;;;;;0.50;49.81;101009.75;4837585;29;20037;-73
2021/04/06 01:43:18;;;;;;;0.32;0.30;;;;;;;0.51;49.38;101002.50;4820321;29;20406;-74
2021/04/06 01:45:44;;;;;;;0.13;0.13;;;;;;;0.52;48.88;101009.56;4822893;29;20026;-74
2021/04/06 01:48:14;;;;;;;0.52;0.38;;;;;;;0.49;49.33;101000.00;4836424;29;20041;-74
2021/04/06 01:50:47;;;;;;;1.55;0.77;;;;;;;0.49;49.75;101010.78;4815213;29;20034;-74
2021/04/06 01:53:15;;;;;;;0.63;0.30;;;;;;;0.52;49.49;101009.56;4884983;23;20398;-72
2021/04/06 01:55:57;;;;;;;0.40;0.10;;;;;;;0.45;49.19;100997.88;4875040;29;20083;-74
2021/04/06 01:58:36;;;;;;;0.30;0.17;;;;;;;0.44;50.62;101001.59;4872638;29;20045;-73
2021/04/06 02:01:17;;;;;;;5.10;0.50;;;;;;;0.37;50.71;100989.91;4871247;29;20043;-72
2021/04/06 02:03:53;;;;;;;0.43;0.30;;;;;;;0.48;50.52;101009.13;4870617;29;20058;-72
2021/04/06 02:06:23;;;;;;;1.55;0.45;;;;;;;0.40;50.51;100990.38;4876215;29;20567;-73
2021/04/06 02:08:54;;;;;;;0.75;0.45;;;;;;;0.44;50.45;100999.75;4869883;29;20101;-72
2021/04/06 02:11:31;;;;;;;0.22;0.20;;;;;;;0.38;50.86;100992.41;4884260;29;20032;-73
2021/04/06 02:14:13;;;;;;;0.43;0.20;;;;;;;0.41;51.08;100992.03;4877042;29;20021;-72
2021/04/06 02:16:46;;;;;;;4.03;0.40;;;;;;;0.42;51.75;100999.06;4895489;29;20076;-73
2021/04/06 02:19:27;;;;;;;1.67;0.35;;;;;;;0.43;52.03;100999.94;4890078;29;20128;-73
2021/04/06 02:21:58;;;;;;;6.88;0.73;;;;;;;0.36;52.13;100982.84;4890194;29;20047;-74
2021/04/06 02:24:33;;;;;;;0.82;0.65;;;;;;;0.43;52.48;100984.63;4881290;29;20025;-73
2021/04/06 02:27:23;;;;;;;1.98;0.47;;;;;;;0.39;52.72;100975.22;4886603;29;20084;-73
2021/04/06 02:30:14;;;;;;;0.80;0.60;;;;;;;0.46;52.95;100992.31;4886882;29;20040;-73
2021/04/06 02:32:40;;;;;;;1.98;0.28;;;;;;;0.38;52.94;100975.41;4888283;29;20419;-74
2021/04/06 02:35:11;;;;;;;0.47;0.20;;;;;;;0.46;53.06;100992.31;4883235;29;20025;-73
2021/04/06 02:37:43;;;;;;;0.63;0.47;;;;;;;0.38;53.48;100975.41;4881778;29;20121;-73
2021/04/06 02:40:11;;;;;;;2.83;0.40;;;;;;;0.38;53.18;100975.41;4885337;29;20039;-73
2021/04/06 02:42:43;;;;;;;1.25;0.40;;;;;;;0.32;52.91;100982.38;4876580;29;20071;-74
2021/04/06 02:45:27;;;;;;;0.22;0.17;;;;;;;0.30;53.09;100973.66;4889996;29;20032;-74
2021/04/06 02:48:03;;;;;;;0.75;0.30;;;;;;;0.33;53.03;100982.19;4875959;29;20568;-74
2021/04/06 02:50:31;;;;;;;0.90;0.50;;;;;;;0.31;53.32;100980.72;4875836;29;20116;-72
2021/04/06 02:52:57;;;;;;;4.22;0.52;;;;;;;0.28;53.97;100981.91;4884157;29;20119;-72
2021/04/06 02:55:25;;;;;;;1.75;0.90;;;;;;;0.21;53.80;100974.78;4873534;29;20135;-72
2021/04/06 02:57:55;;;;;;;1.55;0.57;;;;;;;0.22;53.97;100981.81;4874964;29;20073;-73
2021/04/06 03:00:27;;;;;;;2.03;0.40;;;;;;;0.24;54.01;100985.16;4885595;29;20032;-72
2021/04/06 03:02:58;;;;;;;1.02;0.40;;;;;;;0.20;54.31;100983.88;4871952;29;20115;-72
2021/04/06 03:05:28;;;;;;;0.55;0.32;;;;;;;0.15;54.75;100982.56;4885003;29;20019;-73
2021/04/06 03:07:53;;;;;;;1.80;0.28;;;;;;;0.16;54.22;100978.00;4877044;29;21846;-73
2021/04/06 03:10:20;;;;;;;0.60;0.30;;;;;;;0.14;54.47;100970.13;4856547;29;20447;-73
2021/04/06 03:12:47;;;;;;;1.08;0.70;;;;;;;0.14;54.13;100978.19;4898275;29;20128;-72
2021/04/06 03:15:21;;;;;;;2.15;0.22;;;;;;;0.13;54.67;100973.00;4891511;29;20040;-72
2021/04/06 03:17:52;;;;;;;0.47;0.40;;;;;;;0.08;54.91;100978.94;4896133;29;20382;-73
2021/04/06 03:20:19;;;;;;;1.75;0.30;;;;;;;0.07;54.82;100969.19;4891453;29;20486;-74
2021/04/06 03:22:46;;;;;;;3.13;0.57;;;;;;;0.04;54.56;100980.31;4894687;29;20546;-74
2021/04/06 03:25:13;;;;;;;4.43;0.40;;;;;;;0.06;55.19;100980.13;4879280;29;20073;-74
2021/04/06 03:27:47;;;;;;;0.98;0.38;;;;;;;0.03;54.96;100981.34;4855435;29;20048;-73
2021/04/06 03:30:14;;;;;;;5.22;0.50;;;;;;;-0.02;55.17;100981.03;4896820;29;20040;-72
2021/04/06 03:32:44;;;;;;;1.08;0.20;;;;;;;-0.08;54.59;100965.66;4863235;29;20028;-72
2021/04/06 03:35:10;;;;;;;1.58;0.40;;;;;;;-0.02;55.09;100981.03;4894986;29;22946;-74
2021/04/06 03:37:36;;;;;;;0.57;0.22;;;;;;;-0.04;55.28;100983.09;4893669;29;20037;-75
2021/04/06 03:40:07;;;;;;;1.73;0.47;;;;;;;-0.12;55.32;100969.72;4880754;29;20447;-74
2021/04/06 03:42:33;;;;;;;1.90;0.30;;;;;;;-0.08;55.54;100971.84;4888477;29;20029;-74
2021/04/06 03:45:10;;;;;;;3.20;0.43;;;;;;;-0.08;55.54;100965.66;4854532;29;20043;-75
2021/04/06 03:47:51;;;;;;;2.85;0.52;;;;;;;-0.03;56.03;100971.28;4895429;29;20037;-75
2021/04/06 03:50:37;;;;;;;0.65;0.35;;;;;;;-0.05;55.63;100971.47;4879736;29;20036;-74
2021/04/06 03:53:04;;;;;;;0.88;0.40;;;;;;;-0.05;55.87;100966.09;4892459;29;20060;-73
2021/04/06 03:55:31;;;;;;;1.45;0.20;;;;;;;-0.06;55.94;100967.13;4885720;29;20040;-74
2021/04/06 03:58:28;;;;;;;3.03;0.40;;;;;;;-0.05;55.89;100965.28;4908185;29;20116;-73
2021/04/06 04:00:54;;;;;;;3.42;0.50;;;;;;;-0.02;56.18;100973.78;4893583;29;20070;-74
2021/04/06 04:03:19;;;;;;;1.95;0.40;;;;;;;-0.01;56.17;100971.97;4876995;29;20127;-75
2021/04/06 04:05:47;;;;;;;2.28;0.68;;;;;;;-0.03;56.15;100968.59;4884087;29;20475;-74
2021/04/06 04:08:13;;;;;;;4.10;1.05;;;;;;;-0.03;55.96;100965.91;4888966;29;20043;-73
2021/04/06 04:10:38;;;;;;;1.95;0.20;;;;;;;-0.06;56.13;100967.13;4855858;29;20033;-73
2021/04/06 04:13:03;;;;;;;1.48;0.50;;;;;;;-0.02;55.98;100970.28;4866924;29;20037;-75
2021/04/06 04:15:29;;;;;;;0.30;0.30;;;;;;;-0.03;56.12;100963.22;4876125;29;20047;-77
2021/04/06 04:17:54;;;;;;;1.40;0.43;;;;;;;-0.03;56.23;100971.28;4881892;29;20069;-74
2021/04/06 04:20:22;;;;;;;4.18;0.65;;;;;;;-0.09;56.08;100963.97;4870051;29;20040;-74
2021/04/06 04:22:48;;;;;;;9.75;0.40;;;;;;;-0.06;56.68;100975.22;4890484;29;20032;-73
2021/04/06 04:25:16;;;;;;;1.60;0.40;;;;;;;-0.05;56.81;100970.66;4863089;29;20032;-73
2021/04/06 04:27:42;;;;;;;0.70;0.43;;;;;;;-0.06;56.84;100971.66;4887980;29;20540;-74
2021/04/06 04:30:10;;;;;;;3.10;0.38;;;;;;;-0.04;56.79;100975.03;4887394;29;20036;-74
2021/04/06 04:32:35;;;;;;;5.13;0.85;;;;;;;-0.07;56.93;100976.22;4892503;29;20025;-73
2021/04/06 04:35:02;;;;;;;1.38;0.35;;;;;;;-0.07;57.00;100978.91;4862695;29;20039;-74
2021/04/06 04:37:27;;;;;;;0.60;0.30;;;;;;;-0.09;56.80;100977.41;4895467;29;20031;-74
2021/04/06 04:39:53;;;;;;;4.40;0.50;;;;;;;-0.07;57.04;100975.38;4854232;29;20119;-73
2021/04/06 04:42:18;;;;;;;2.35;0.60;;;;;;;-0.07;57.40;100981.59;4886656;29;20084;-74
2021/04/06 04:44:44;;;;;;;0.82;0.30;;;;;;;-0.06;57.31;100974.34;4871183;29;20412;-73
2021/04/06 04:47:09;;;;;;;2.95;0.45;;;;;;;-0.10;57.71;100973.03;4889921;29;20376;-73
2021/04/06 04:49:35;;;;;;;1.10;0.38;;;;;;;-0.08;57.72;100976.41;4871904;29;20043;-74
2021/04/06 04:52:00;;;;;;;2.92;0.75;;;;;;;-0.10;57.45;100971.22;4873157;29;20053;-75
2021/04/06 04:54:28;;;;;;;9.25;1.20;;;;;;;-0.04;57.77;100975.03;4893109;29;21043;-74
2021/04/06 04:56:54;;;;;;;7.72;0.68;;;;;;;-0.03;58.56;100969.47;4891835;29;20040;-73
2021/04/06 04:59:20;;;;;;;2.67;0.47;;;;;;;-0.01;58.29;100966.59;4886441;29;20039;-72
2021/04/06 05:01:46;;;;;;;10.43;0.82;;;;;;;0.05;57.93;100975.78;4897628;29;20032;-73
2021/04/06 05:04:11;;;;;;;2.53;0.47;;;;;;;0.06;57.75;100964.84;4886965;29;20357;-73
2021/04/06 05:06:37;;;;;;;2.40;0.30;;;;;;;0.05;57.96;100965.03;4887839;29;20041;-75
2021/04/06 05:09:03;;;;;;;3.63;0.57;;;;;;;0.08;57.46;100964.66;4885044;29;20044;-74
2021/04/06 05:11:29;;;;;;;1.42;0.73;;;;;;;0.07;58.11;100963.78;4881048;29;20035;-74
2021/04/06 05:13:54;;;;;;;2.72;0.50;;;;;;;0.06;58.09;100956.78;4862525;29;20033;-74
2021/04/06 05:16:20;;;;;;;6.88;1.40;;;;;;;0.08;58.15;100962.78;4888929;29;20029;-76
2021/04/06 05:18:45;;;;;;;2.33;0.60;;;;;;;0.10;57.88;100958.06;4872828;29;20036;-73
2021/04/06 05:21:12;;;;;;;3.13;0.55;;;;;;;0.10;57.78;100958.06;4896113;29;20065;-70
2021/04/06 05:23:38;;;;;;;5.68;0.50;;;;;;;0.08;58.22;100952.03;4874288;29;20048;-74
2021/04/06 05:26:03;;;;;;;1.13;0.30;;;;;;;0.09;57.76;100955.53;4893874;29;20081;-74
2021/04/06 05:28:29;;;;;;;4.13;0.40;;;;;;;0.04;58.29;100942.66;4890278;29;20037;-77
2021/04/06 05:30:54;;;;;;;2.40;0.90;;;;;;;0.01;58.34;100948.41;4883574;29;20063;-76
2021/04/06 05:33:31;;;;;;;1.77;0.52;;;;;;;-0.15;58.29;100932.44;4863599;29;20182;-78
2021/04/06 05:35:57;;;;;;;1.98;0.52;;;;;;;-0.09;58.89;100942.47;4876354;29;20032;-78
2021/04/06 05:38:22;;;;;;;1.60;0.60;;;;;;;-0.24;59.20;100929.81;4888914;29;20065;-76
2021/04/06 05:40:58;;;;;;;7.18;0.55;;;;;;;-0.20;59.06;100941.88;4875567;29;20037;-77
2021/04/06 05:43:56;;;;;;;1.08;0.20;;;;;;;-0.28;59.01;100933.88;4878871;29;20399;-77
2021/04/06 05:46:45;;;;;;;1.05;0.30;;;;;;;-0.26;59.60;100945.31;4878930;29;20079;-78
2021/04/06 05:49:23;;;;;;;1.60;0.68;;;;;;;-0.16;59.62;100952.28;4892864;29;20068;-75
2021/04/06 05:51:49;;;;;;;4.47;0.52;;;;;;;-0.15;59.52;100959.31;4888182;29;20151;-75
2021/04/06 05:54:16;;;;;;;2.90;0.40;;;;;;;-0.16;59.18;100952.28;4888126;29;20044;-74
2021/04/06 05:56:43;;;;;;;3.08;0.70;;;;;;;-0.20;59.74;100936.50;4880765;29;20609;-75
2021/04/06 05:59:09;;;;;;;3.45;0.98;;;;;;;-0.12;60.17;100948.19;4896628;29;20043;-73
2021/04/06 06:01:46;;;;;;;4.30;0.65;;;;;;;-0.07;59.87;100956.56;4867116;29;20451;-74
2021/04/06 06:04:19;;;;;;;0.45;0.45;;;;;;;0.02;60.00;100960.00;4890022;29;20058;-75
2021/04/06 06:06:49;;;;;;;1.23;0.65;;;;;;;0.03;59.90;100957.13;4883564;29;20254;-74
2021/04/06 06:09:28;;;;;;;10.50;0.65;;;;;;;0.13;59.66;100963.09;4871441;29;20048;-75
2021/04/06 06:12:04;;;;;;;0.65;0.47;;;;;;;0.17;59.77;100968.91;4886332;29;20058;-76
2021/04/06 06:14:34;;;;;;;0.95;0.50;;;;;;;0.21;59.72;100975.59;4880895;29;20044;-75
2021/04/06 06:17:19;;;;;;;3.40;0.73;;;;;;;0.22;59.97;100971.06;4884317;29;20024;-74
2021/04/06 06:19:56;;;;;;;11.77;0.82;;;;;;;0.13;60.28;100952.31;4889707;29;20039;-74
2021/04/06 06:22:28;;;;;;;1.33;0.30;;;;;;;0.19;60.03;100964.22;4895685;29;20035;-71
2021/04/06 06:25:07;;;;;;;3.30;0.30;;;;;;;0.30;59.99;100976.34;4877616;29;20036;-72
2021/04/06 06:27:45;;;;;;;4.55;0.60;;;;;;;0.29;60.00;100969.28;4889433;29;20052;-71
2021/04/06 06:30:33;;;;;;;2.13;0.70;;;;;;;0.36;59.88;100967.53;4887288;29;20590;-74
2021/04/06 06:33:26;;;;;;;2.80;0.55;;;;;;;0.48;59.78;100966.06;4868944;29;20053;-73
2021/04/06 06:36:02;;;;;;;0.55;0.30;;;;;;;0.50;59.73;100958.63;4901413;29;20028;-73
2021/04/06 06:38:35;;;;;;;6.13;0.63;;;;;;;0.59;60.16;100961.22;4883498;29;20032;-75
2021/04/06 06:41:19;;;;;;;6.03;0.60;;;;;;;0.66;59.80;100962.16;4881215;29;20037;-76
2021/04/06 06:43:46;;;;;;;6.40;0.90;;;;;;;0.74;59.58;100964.72;4898518;29;20118;-77
2021/04/06 06:46:31;;;;;;;0.43;0.40;;;;;;;0.89;59.33;100966.56;4879568;29;20088;-75
2021/04/06 06:49:04;;;;;;;1.43;0.40;;;;;;;0.95;59.71;100974.72;4879144;29;20037;-76
2021/04/06 06:51:36;;;;;;;9.18;1.08;;;;;;;1.01;59.71;100973.16;4879809;29;20471;-74
2021/04/06 06:54:08;;;;;;;5.18;0.82;;;;;;;1.06;59.29;100956.41;4881301;29;20044;-75
2021/04/06 06:56:49;;;;;;;3.70;0.55;;;;;;;1.21;59.66;100966.13;4890613;29;20096;-78
2021/04/06 06:59:15;;;;;;;0.55;0.20;;;;;;;1.30;59.33;100974.06;4892179;29;20025;-77
2021/04/06 07:01:40;;;;;;;4.10;1.00;;;;;;;1.42;58.65;100977.94;4867948;29;20037;-76
2021/04/06 07:04:16;;;;;;;1.33;0.60;;;;;;;1.46;58.57;100973.84;4867295;29;20692;-77
2021/04/06 07:06:46;;;;;;;4.40;0.73;;;;;;;1.59;58.86;100978.50;4881223;29;20064;-79
2021/04/06 07:09:20;;;;;;;2.28;0.68;;;;;;;1.68;58.57;100971.97;4878693;29;20124;-74
2021/04/06 07:12:01;;;;;;;;;;;;;;;;;;;;;
2021/04/06 07:14:28;;;;;;;2.33;0.52;;;;;;;1.81;58.02;100965.00;4893833;29;20116;-76
2021/04/06 07:17:12;;;;;;;5.05;0.50;;;;;;;1.85;57.67;100950.91;4885007;29;20028;-76
2021/04/06 07:19:43;;;;;;;1.02;0.60;;;;;;;2.03;58.34;100957.69;4883974;29;20040;-75
2021/04/06 07:22:13;;;;;;;1.83;0.32;;;;;;;2.12;57.47;100961.94;4898339;29;20025;-76
2021/04/06 07:24:43;;;;;;;6.95;0.50;;;;;;;2.25;56.80;100967.41;4878455;29;20524;-75
2021/04/06 07:27:11;;;;;;;3.58;0.40;;;;;;;2.31;56.97;100970.34;4881647;29;20040;-75
2021/04/06 07:29:38;;;;;;;1.85;0.82;;;;;;;2.37;57.03;100956.06;4878903;29;20032;-75
2021/04/06 07:32:04;;;;;;;1.05;0.20;;;;;;;2.51;56.42;100962.38;4879555;29;20028;-75
2021/04/06 07:34:31;;;;;;;7.32;0.88;;;;;;;2.65;56.07;100977.59;4876677;29;20035;-75
2021/04/06 07:37:07;;;;;;;2.72;0.85;;;;;;;2.67;56.47;100963.91;4892622;29;20029;-75
2021/04/06 07:39:36;;;;;;;3.47;1.30;;;;;;;2.82;56.40;100978.09;4877227;29;20433;-75
2021/04/06 07:42:02;;;;;;;3.75;0.40;;;;;;;2.89;56.64;100976.28;4873727;29;20103;-75
2021/04/06 07:44:48;;;;;;;4.28;0.77;;;;;;;2.99;56.17;100973.16;4891950;29;20483;-75
2021/04/06 07:47:37;;;;;;;0.70;0.47;;;;;;;3.20;55.04;100974.91;4872910;29;20092;-75
2021/04/06 07:50:11;;;;;;;2.15;0.73;;;;;;;3.36;55.02;100987.22;4894264;29;20044;-75
2021/04/06 07:52:50;;;;;;;2.72;0.85;;;;;;;3.40;54.76;100991.19;4891264;29;20048;-74
2021/04/06 07:55:17;;;;;;;0.93;0.30;;;;;;;3.45;54.26;100974.34;4874827;29;20025;-76
2021/04/06 07:57:49;;;;;;;1.75;0.47;;;;;;;3.50;53.95;100958.31;4881277;29;20058;-76
2021/04/06 08:00:50;;;;;;;0.25;0.20;;;;;;;3.91;52.98;100986.25;4894830;29;20025;-76
2021/04/06 08:04:00;;;;;;;4.40;0.40;;;;;;;4.09;53.49;100982.91;4882196;29;20029;-75
2021/04/06 08:06:40;;;;;;;0.90;0.38;;;;;;;4.35;53.17;100961.22;4880291;29;20159;-74
2021/04/06 08:09:42;;;;;;;;;;;;;;;;;;;;;
2021/04/06 08:12:15;;;;;;;1.15;0.25;;;;;;;4.70;50.76;100974.47;4859188;29;20035;-76
2021/04/06 08:14:48;;;;;;;5.15;0.28;;;;;;;4.70;51.15;100952.78;4897050;29;20486;-75
2021/04/06 08:17:29;;;;;;;0.90;0.32;;;;;;;5.02;50.81;100966.41;4897148;29;20061;-77
2021/04/06 08:20:04;;;;;;;0.68;0.50;;;;;;;5.35;49.80;100975.41;4873411;29;20077;-76
2021/04/06 08:22:49;;;;;;;0.57;0.38;;;;;;;5.96;49.90;100984.78;4902688;29;20035;-77
2021/04/06 08:25:21;;;;;;;0.65;0.25;;;;;;;6.71;49.19;100992.03;4873407;29;20040;-76
2021/04/06 08:27:50;;;;;;;1.65;0.35;;;;;;;7.21;46.05;100982.00;4889163;29;20025;-74
2021/04/06 08:30:18;;;;;;;2.10;0.60;;;;;;;7.93;47.33;100978.41;4878549;29;20057;-75
2021/04/06 08:33:11;;;;;;;0.50;0.28;;;;;;;8.81;44.59;100979.38;4899921;29;20389;-78
2021/04/06 08:35:56;;;;;;;;;;;;;;;;;;;;;
2021/04/06 08:38:49;;;;;;;0.65;0.43;;;;;;;10.69;43.17;100986.72;4901218;29;20076;-76
2021/04/06 08:41:34;;;;;;;2.60;0.40;;;;;;;11.53;41.40;100984.66;4888916;29;20115;-76
2021/04/06 08:44:06;;;;;;;1.25;0.30;;;;;;;12.13;38.34;100970.94;4881429;29;20040;-75
2021/04/06 08:46:40;;;;;;;0.60;0.30;;;;;;;12.70;37.19;100981.19;4889907;29;20058;-77
2021/04/06 08:49:23;;;;;;;1.42;0.50;;;;;;;13.28;35.86;100980.28;4883488;29;20111;-76
2021/04/06 08:51:54;;;;;;;0.77;0.43;;;;;;;13.77;34.68;100977.13;4889953;29;20025;-77
2021/04/06 08:54:48;;;;;;;;;;;;;;;;;;;;;
2021/04/06 08:57:22;;;;;;;0.75;0.30;;;;;;;15.11;32.19;100965.00;4899568;29;20116;-76
2021/04/06 08:59:50;;;;;;;0.28;0.20;;;;;;;15.66;31.88;100964.94;4901189;29;20041;-76
2021/04/06 09:02:17;;;;;;;2.03;0.50;;;;;;;15.90;29.37;100953.19;4894230;29;20061;-77
2021/04/06 09:04:47;;;;;;;2.17;0.32;;;;;;;16.21;29.00;100971.13;4891021;29;20544;-77
2021/04/06 09:07:20;;;;;;;1.95;0.73;;;;;;;16.70;29.69;100968.41;4886372;29;20041;-77
2021/04/06 09:09:46;;;;;;;5.55;0.60;;;;;;;16.80;27.69;100943.41;4885451;29;20032;-76
2021/04/06 09:12:30;;;;;;;;;;;;;;;;;;;;;
2021/04/06 09:15:03;;;;;;;1.27;0.50;;;;;;;17.60;26.07;100961.13;4902966;29;20166;-77
2021/04/06 09:17:46;;;;;;;;;;;;;;;;;;;;;
2021/04/06 09:20:34;;;;;;;2.00;0.30;;;;;;;18.50;25.12;100971.25;4897929;29;20112;-76
2021/04/06 09:23:12;;;;;;;2.63;0.30;;;;;;;18.25;22.86;100954.00;4893492;29;20036;-78
2021/04/06 09:25:54;;;;;;;1.33;0.30;;;;;;;18.18;23.91;100948.03;4903919;29;20035;-77
2021/04/06 09:28:20;;;;;;;1.50;0.32;;;;;;;18.49;23.20;100941.91;4888672;29;20129;-77
2021/04/06 09:30:48;;;;;;;1.00;0.20;;;;;;;19.00;23.44;100954.72;4886757;29;20032;-75
2021/04/06 09:33:18;;;;;;;0.20;0.20;;;;;;;19.40;22.42;100961.63;4852178;29;20032;-76
2021/04/06 09:35:53;;;;;;;3.15;0.95;;;;;;;19.07;21.24;100967.34;4887983;29;20116;-76
2021/04/06 09:38:23;;;;;;;0.73;0.20;;;;;;;18.97;21.36;100958.13;4883187;29;20025;-78
2021/04/06 09:40:50;;;;;;;1.42;0.85;;;;;;;18.74;21.60;100964.69;4897968;29;20033;-76
2021/04/06 09:43:16;;;;;;;2.38;0.17;;;;;;;18.76;21.87;100954.09;4864723;29;20033;-76
2021/04/06 09:45:49;;;;;;;0.50;0.30;;;;;;;19.22;21.78;100961.47;4892125;29;20037;-75
2021/04/06 09:51:17;;;;;;;0.63;0.30;;;;;;;20.40;21.50;100938.31;4886562;29;20040;-79
2021/04/06 09:53:52;;;;;;;0.47;0.20;;;;;;;20.01;20.09;100929.63;4884589;29;20214;-77
2021/04/06 09:56:33;;;;;;;0.75;0.38;;;;;;;19.83;19.90;100941.75;4885331;29;20031;-80
2021/04/06 09:59:17;;;;;;;1.58;0.30;;;;;;;20.14;19.54;100938.19;4895403;29;20029;-77
2021/04/06 10:02:00;;;;;;;1.25;0.45;;;;;;;20.52;19.64;100926.59;4875089;29;20372;-79
2021/04/06 10:04:51;;;;;;;;;;;;;;;;;;;;;
2021/04/06 10:07:25;;;;;;;0.98;0.25;;;;;;;21.32;19.22;100920.91;4893162;29;20047;-81
2021/04/06 10:10:05;;;;;;;0.63;0.20;;;;;;;20.44;17.93;100935.72;4880702;29;20419;-79
2021/04/06 10:12:51;;;;;;;;;;;;;;;;;;;;;
2021/04/06 10:15:45;;;;;;;;;;;;;;;;;;;;;
2021/04/06 10:18:17;;;;;;;1.48;0.30;;;;;;;18.99;19.84;100905.97;4894661;29;20139;-77
2021/04/06 10:20:52;;;;;;;3.28;0.55;;;;;;;20.10;19.58;100898.31;4883161;29;20495;-76
2021/04/06 10:23:44;;;;;;;;;;;;;;;;;;;;;
2021/04/06 10:26:21;;;;;;;0.55;0.20;;;;;;;22.51;19.18;100900.19;4901557;29;20127;-77
2021/04/06 10:28:47;;;;;;;0.65;0.25;;;;;;;23.45;18.36;100899.91;4899976;29;20028;-78
2021/04/06 10:31:22;;;;;;;3.90;0.50;;;;;;;24.28;16.59;100899.19;4915023;29;20079;-79
2021/04/06 10:33:52;;;;;;;;;;;;;;;25.61;15.40;100906.94;4897813;29;20057;-79
2021/04/06 10:36:18;;;;;;;0.73;0.32;;;;;;;25.85;15.35;100896.75;4908144;29;19907;-78
2021/04/06 10:38:44;;;;;;;0.57;0.20;;;;;;;26.51;15.33;100905.66;4897183;29;20043;-79
2021/04/06 10:41:20;;;;;;;0.90;0.30;;;;;;;27.05;14.19;100898.50;4880646;29;20047;-78
2021/04/06 10:43:51;;;;;;;0.68;0.20;;;;;;;27.21;13.61;100898.47;4893037;29;20376;-77
2021/04/06 10:46:28;;;;;;;1.23;0.50;;;;;;;27.67;13.76;100904.25;4897137;29;20677;-78
2021/04/06 10:49:16;;;;;;;0.25;0.20;;;;;;;28.81;13.25;100908.59;4896983;29;20028;-77
2021/04/06 10:52:09;;;;;;;;;;;;;;;;;;;;;
2021/04/06 10:54:45;;;;;;;;;;;;;;;;;;;;;
2021/04/06 10:57:25;;;;;;;1.20;0.20;;;;;;;24.71;12.11;100867.88;4896262;29;20119;-78
2021/04/06 10:59:55;;;;;;;0.63;0.40;;;;;;;24.30;13.72;100885.66;4900098;29;20044;-79
2021/04/06 11:02:56;;;;;;;;;;;;;;;;;;;;;
2021/04/06 11:09:44;;;;;;;2.08;0.40;;;;;;;21.84;13.86;100869.13;4816892;29;20122;-80
2021/04/06 11:12:43;;;;;;;0.57;0.52;;;;;;;20.43;15.11;100846.03;4804964;29;20034;-77
2021/04/06 11:15:09;;;;;;;2.67;0.43;;;;;;;19.11;15.56;100844.44;4821999;29;20034;-80
2021/04/06 11:17:42;;;;;;;0.52;0.17;;;;;;;18.55;16.84;100857.59;4818887;29;20117;-78
2021/04/06 11:20:22;;;;;;;0.40;0.25;;;;;;;19.08;17.76;100847.03;4832265;29;20040;-79
2021/04/06 11:22:48;;;;;;;0.77;0.10;;;;;;;21.31;18.38;100868.38;4899315;29;20085;-77
2021/04/06 11:25:16;;;;;;;4.15;0.25;;;;;;;23.13;16.49;100845.66;4860308;29;20024;-78
2021/04/06 11:27:44;;;;;;;0.38;0.30;;;;;;;23.43;14.87;100849.16;4863104;29;20056;-77
2021/04/06 11:30:13;;;;;;;3.88;0.30;;;;;;;22.61;14.39;100852.44;4875127;29;20025;-80
2021/04/06 11:32:39;;;;;;;0.38;0.20;;;;;;;22.01;15.09;100848.78;4887073;29;20059;-80
2021/04/06 11:35:08;;;;;;;1.05;0.22;;;;;;;21.80;15.44;100846.72;4868528;29;20033;-80
2021/04/06 11:37:35;;;;;;;0.28;0.20;;;;;;;20.96;15.24;100827.50;4892148;29;20036;-79
2021/04/06 11:40:01;;;;;;;0.60;0.20;;;;;;;20.19;15.75;100840.88;4894394;29;20036;-79
2021/04/06 11:42:27;;;;;;;0.60;0.20;;;;;;;19.92;16.55;100831.63;4877038;29;20625;-80
2021/04/06 11:44:54;;;;;;;4.43;0.25;;;;;;;19.51;16.56;100827.13;4890923;29;20052;-78
2021/04/06 11:47:20;;;;;;;0.85;0.30;;;;;;;19.22;17.56;100803.44;4874144;29;20385;-78
2021/04/06 11:49:49;;;;;;;0.25;0.10;;;;;;;19.92;16.95;100803.88;4877204;29;20067;-76
2021/04/06 11:52:14;;;;;;;2.33;0.50;;;;;;;19.75;16.23;100829.53;4885012;29;20055;-78
2021/04/06 11:54:42;;;;;;;5.85;0.50;;;;;;;18.81;16.54;100804.41;4890896;29;20032;-81
2021/04/06 11:57:08;;;;;;;1.50;0.30;;;;;;;17.73;17.49;100820.44;4866701;29;20032;-79
2021/04/06 11:59:33;;;;;;;0.40;0.10;;;;;;;16.81;17.75;100831.84;4861937;29;20039;-77
2021/04/06 12:02:01;;;;;;;1.05;0.20;;;;;;;16.32;18.77;100827.50;4903537;29;20099;-77
2021/04/06 12:04:29;;;;;;;0.20;0.10;;;;;;;16.50;20.18;100829.50;4901895;29;20029;-80
2021/04/06 12:06:58;;;;;;;0.47;0.20;;;;;;;16.95;19.58;100800.72;4890963;29;20399;-80
2021/04/06 12:09:25;;;;;;;0.13;0.00;;;;;;;17.06;19.18;100827.09;4882336;29;20036;-80
2021/04/06 12:11:51;;;;;;;1.40;0.35;;;;;;;16.60;19.80;100816.66;4890473;29;20695;-80
2021/04/06 12:14:18;;;;;;;0.28;0.10;;;;;;;15.99;20.63;100835.59;4887077;29;20044;-79
2021/04/06 12:16:44;;;;;;;0.30;0.20;;;;;;;15.36;21.26;100818.00;4880276;29;20032;-79
2021/04/06 12:19:11;;;;;;;0.43;0.20;;;;;;;16.81;22.71;100818.03;4890722;29;20040;-78
2021/04/06 12:21:37;;;;;;;2.83;0.20;;;;;;;19.53;21.90;100813.75;4898581;29;20103;-76
2021/04/06 12:24:03;;;;;;;0.10;0.00;;;;;;;21.84;18.88;100813.47;4879166;29;20067;-77